createdAt,value
2022-08-09T00:00:55.112Z,14
2022-08-09T00:01:55.713Z,13.9
2022-08-09T00:02:55.069Z,13.9
2022-08-09T00:04:01.116Z,13.9
2022-08-09T00:05:00.987Z,13.9
2022-08-09T00:06:16.919Z,13.9
2022-08-09T00:06:55.099Z,13.8
2022-08-09T00:07:55.070Z,13.8
2022-08-09T00:08:57.294Z,13.8
2022-08-09T00:09:55.050Z,13.8
2022-08-09T00:10:55.058Z,13.7
2022-08-09T00:12:03.269Z,13.7
2022-08-09T00:12:55.064Z,13.7
2022-08-09T00:13:55.633Z,13.7
2022-08-09T00:14:56.637Z,13.6
2022-08-09T00:15:57.770Z,13.6
2022-08-09T00:16:55.086Z,13.6
2022-08-09T00:18:04.918Z,13.6
2022-08-09T00:18:55.071Z,13.6
2022-08-09T00:19:55.058Z,13.5
2022-08-09T00:20:55.066Z,13.5
2022-08-09T00:21:55.759Z,13.5
2022-08-09T00:22:55.083Z,13.5
2022-08-09T00:23:59.962Z,13.4
2022-08-09T00:24:55.065Z,13.4
2022-08-09T00:25:55.073Z,13.4
2022-08-09T00:26:55.080Z,13.4
2022-08-09T00:27:55.061Z,13.4
2022-08-09T00:28:55.055Z,13.3
2022-08-09T00:30:10.495Z,13.3
2022-08-09T00:30:55.052Z,13.3
2022-08-09T00:31:58.872Z,13.3
2022-08-09T00:32:55.115Z,13.2
2022-08-09T00:33:55.181Z,13.2
2022-08-09T00:34:55.164Z,13.2
2022-08-09T00:35:55.033Z,13.2
2022-08-09T00:36:55.181Z,13.2
2022-08-09T00:37:55.038Z,13.2
2022-08-09T00:38:55.138Z,13.2
2022-08-09T00:40:02.036Z,13.1
2022-08-09T00:40:55.065Z,13.1
2022-08-09T00:44:08.672Z,13.1
2022-08-09T00:44:08.961Z,13.1
2022-08-09T00:44:09.029Z,13.1
2022-08-09T00:44:55.440Z,13.1
2022-08-09T00:45:55.151Z,13.1
2022-08-09T00:46:55.735Z,13.1
2022-08-09T00:47:55.405Z,13.1
2022-08-09T00:48:56.273Z,13.1
2022-08-09T00:49:56.428Z,13.1
2022-08-09T00:50:55.280Z,13.1
2022-08-09T00:51:56.160Z,13
2022-08-09T00:52:55.167Z,13
2022-08-09T00:53:55.315Z,13
2022-08-09T00:54:55.447Z,13
2022-08-09T00:56:03.466Z,13
2022-08-09T00:56:56.121Z,13
2022-08-09T00:57:55.109Z,13
2022-08-09T00:58:55.398Z,13
2022-08-09T00:59:55.068Z,13
2022-08-09T01:00:55.340Z,13
2022-08-09T01:01:55.120Z,13
2022-08-09T01:02:55.101Z,13
2022-08-09T01:03:56.671Z,13
2022-08-09T01:04:55.072Z,13
2022-08-09T01:05:55.090Z,13
2022-08-09T01:06:55.699Z,13
2022-08-09T01:07:57.519Z,13
2022-08-09T01:08:55.065Z,12.9
2022-08-09T01:09:55.062Z,12.9
2022-08-09T01:10:55.089Z,12.9
2022-08-09T01:11:55.503Z,12.9
2022-08-09T01:12:55.107Z,12.9
2022-08-09T01:13:59.720Z,12.9
2022-08-09T01:14:55.056Z,12.9
2022-08-09T01:15:55.063Z,12.9
2022-08-09T01:16:55.083Z,12.9
2022-08-09T01:17:56.790Z,12.9
2022-08-09T01:19:01.745Z,12.9
2022-08-09T01:19:57.090Z,12.8
2022-08-09T01:20:55.068Z,12.8
2022-08-09T01:21:55.064Z,12.8
2022-08-09T01:22:55.252Z,12.8
2022-08-09T01:24:01.684Z,12.8
2022-08-09T01:24:55.071Z,12.8
2022-08-09T01:25:55.058Z,12.8
2022-08-09T01:26:55.081Z,12.8
2022-08-09T01:27:56.974Z,12.8
2022-08-09T01:28:55.067Z,12.8
2022-08-09T01:29:56.519Z,12.8
2022-08-09T01:30:55.068Z,12.8
2022-08-09T01:32:30.550Z,12.8
2022-08-09T01:32:55.090Z,12.7
2022-08-09T01:33:55.082Z,12.7
2022-08-09T01:34:55.064Z,12.7
2022-08-09T01:35:55.062Z,12.7
2022-08-09T01:36:55.057Z,12.7
2022-08-09T01:38:06.212Z,12.7
2022-08-09T01:38:55.068Z,12.7
2022-08-09T01:39:55.083Z,12.7
2022-08-09T01:41:02.865Z,12.7
2022-08-09T01:41:56.119Z,12.6
2022-08-09T01:42:55.093Z,12.6
2022-08-09T01:43:55.061Z,12.6
2022-08-09T01:44:55.068Z,12.6
2022-08-09T01:45:57.950Z,12.6
2022-08-09T01:46:55.066Z,12.6
2022-08-09T01:47:55.092Z,12.5
2022-08-09T01:48:55.055Z,12.5
2022-08-09T01:49:55.077Z,12.5
2022-08-09T01:50:55.506Z,12.5
2022-08-09T01:51:55.183Z,12.5
2022-08-09T01:52:55.059Z,12.5
2022-08-09T01:53:57.767Z,12.5
2022-08-09T01:54:55.064Z,12.5
2022-08-09T01:55:55.056Z,12.4
2022-08-09T01:56:55.067Z,12.4
2022-08-09T01:57:55.072Z,12.4
2022-08-09T01:58:55.069Z,12.4
2022-08-09T01:59:59.824Z,12.4
2022-08-09T02:00:55.105Z,12.4
2022-08-09T02:01:57.801Z,12.4
2022-08-09T02:02:55.066Z,12.4
2022-08-09T02:03:55.161Z,12.4
2022-08-09T02:04:55.065Z,12.4
2022-08-09T02:06:04.287Z,12.3
2022-08-09T02:06:58.527Z,12.3
2022-08-09T02:08:36.140Z,12.3
2022-08-09T02:08:58.305Z,12.3
2022-08-09T02:09:59.576Z,12.3
2022-08-09T02:10:55.059Z,12.3
2022-08-09T02:11:55.073Z,12.3
2022-08-09T02:12:55.054Z,12.3
2022-08-09T02:13:55.176Z,12.2
2022-08-09T02:14:55.754Z,12.2
2022-08-09T02:15:55.060Z,12.2
2022-08-09T02:17:00.269Z,12.2
2022-08-09T02:18:00.374Z,12.2
2022-08-09T02:18:55.075Z,12.2
2022-08-09T02:19:55.061Z,12.2
2022-08-09T02:20:55.076Z,12.2
2022-08-09T02:21:55.299Z,12.1
2022-08-09T02:22:55.062Z,12.1
2022-08-09T02:23:55.061Z,12.1
2022-08-09T02:24:55.061Z,12.1
2022-08-09T02:25:56.909Z,12.1
2022-08-09T02:26:55.238Z,12.1
2022-08-09T02:28:00.709Z,12.1
2022-08-09T02:28:55.481Z,12.1
2022-08-09T02:29:55.967Z,12.1
2022-08-09T02:30:56.272Z,12
2022-08-09T02:31:55.615Z,12
2022-08-09T02:32:55.705Z,12
2022-08-09T02:33:58.568Z,12
2022-08-09T02:34:55.821Z,12
2022-08-09T02:36:02.223Z,12
2022-08-09T02:36:55.073Z,12
2022-08-09T02:37:55.064Z,12
2022-08-09T02:38:55.278Z,12
2022-08-09T02:40:01.481Z,12
2022-08-09T02:40:55.114Z,11.9
2022-08-09T02:41:55.060Z,11.9
2022-08-09T02:42:55.071Z,11.9
2022-08-09T02:43:55.530Z,11.9
2022-08-09T02:44:55.062Z,11.9
2022-08-09T02:45:55.060Z,11.9
2022-08-09T02:46:55.069Z,11.8
2022-08-09T02:47:57.862Z,11.8
2022-08-09T02:48:55.068Z,11.8
2022-08-09T02:49:55.276Z,11.8
2022-08-09T02:50:56.476Z,11.8
2022-08-09T02:51:55.073Z,11.8
2022-08-09T02:52:55.214Z,11.8
2022-08-09T02:54:00.714Z,11.8
2022-08-09T02:54:57.198Z,11.8
2022-08-09T02:55:57.857Z,11.8
2022-08-09T02:56:57.001Z,11.7
2022-08-09T02:57:59.913Z,11.7
2022-08-09T02:58:55.064Z,11.7
2022-08-09T03:00:11.514Z,11.7
2022-08-09T03:00:58.312Z,11.7
2022-08-09T03:02:05.825Z,11.7
2022-08-09T03:02:58.838Z,11.7
2022-08-09T03:04:13.505Z,11.7
2022-08-09T03:04:55.065Z,11.8
2022-08-09T03:05:55.431Z,11.8
2022-08-09T03:06:55.309Z,11.7
2022-08-09T03:07:55.570Z,11.7
2022-08-09T03:08:55.066Z,11.7
2022-08-09T03:09:56.642Z,11.7
2022-08-09T03:10:55.078Z,11.7
2022-08-09T03:12:06.911Z,11.7
2022-08-09T03:12:55.102Z,11.7
2022-08-09T03:13:59.544Z,11.7
2022-08-09T03:14:55.064Z,11.7
2022-08-09T03:16:05.033Z,11.7
2022-08-09T03:16:55.070Z,11.7
2022-08-09T03:17:58.054Z,11.7
2022-08-09T03:18:55.666Z,11.7
2022-08-09T03:19:58.768Z,11.6
2022-08-09T03:20:55.075Z,11.6
2022-08-09T03:21:55.059Z,11.6
2022-08-09T03:22:57.060Z,11.6
2022-08-09T03:23:57.637Z,11.6
2022-08-09T03:25:06.024Z,11.6
2022-08-09T03:25:57.139Z,11.6
2022-08-09T03:26:55.083Z,11.6
2022-08-09T03:27:55.165Z,11.6
2022-08-09T03:28:55.221Z,11.5
2022-08-09T03:29:57.499Z,11.6
2022-08-09T03:30:55.074Z,11.6
2022-08-09T03:32:00.140Z,11.5
2022-08-09T03:32:55.075Z,11.5
2022-08-09T03:33:56.545Z,11.5
2022-08-09T03:34:55.723Z,11.5
2022-08-09T03:36:14.286Z,11.5
2022-08-09T03:36:58.418Z,11.5
2022-08-09T03:37:57.227Z,11.5
2022-08-09T03:38:55.064Z,11.5
2022-08-09T03:39:55.313Z,11.5
2022-08-09T03:40:55.036Z,11.5
2022-08-09T03:42:05.848Z,11.5
2022-08-09T03:42:55.132Z,11.5
2022-08-09T03:44:03.844Z,11.4
2022-08-09T03:44:55.141Z,11.4
2022-08-09T03:46:02.884Z,11.4
2022-08-09T03:46:55.055Z,11.4
2022-08-09T03:47:55.178Z,11.4
2022-08-09T03:48:55.524Z,11.4
2022-08-09T03:49:57.813Z,11.4
2022-08-09T03:50:55.071Z,11.4
2022-08-09T03:51:59.014Z,11.4
2022-08-09T03:52:55.074Z,11.4
2022-08-09T03:53:55.860Z,11.4
2022-08-09T03:54:55.032Z,11.4
2022-08-09T03:55:55.056Z,11.4
2022-08-09T03:56:57.759Z,11.4
2022-08-09T03:57:57.561Z,11.4
2022-08-09T03:58:55.094Z,11.4
2022-08-09T03:59:55.891Z,11.4
2022-08-09T04:00:55.122Z,11.4
2022-08-09T04:01:55.092Z,11.4
2022-08-09T04:02:55.134Z,11.4
2022-08-09T04:04:00.704Z,11.4
2022-08-09T04:04:55.060Z,11.4
2022-08-09T04:05:55.099Z,11.4
2022-08-09T04:06:55.081Z,11.4
2022-08-09T04:07:56.605Z,11.4
2022-08-09T04:08:55.500Z,11.4
2022-08-09T04:09:55.107Z,11.4
2022-08-09T04:10:55.338Z,11.4
2022-08-09T04:11:55.495Z,11.4
2022-08-09T04:12:55.077Z,11.4
2022-08-09T04:14:36.851Z,11.4
2022-08-09T04:15:01.249Z,11.4
2022-08-09T04:16:19.134Z,11.4
2022-08-09T04:16:55.100Z,11.4
2022-08-09T04:17:57.656Z,11.4
2022-08-09T04:18:55.071Z,11.4
2022-08-09T04:19:55.925Z,11.4
2022-08-09T04:20:55.269Z,11.4
2022-08-09T04:21:55.101Z,11.4
2022-08-09T04:22:55.078Z,11.4
2022-08-09T04:23:57.870Z,11.4
2022-08-09T04:24:55.071Z,11.4
2022-08-09T04:25:55.095Z,11.4
2022-08-09T04:26:55.094Z,11.4
2022-08-09T04:27:55.077Z,11.4
2022-08-09T04:28:58.282Z,11.3
2022-08-09T04:29:55.075Z,11.4
2022-08-09T04:30:55.065Z,11.4
2022-08-09T04:31:55.202Z,11.4
2022-08-09T04:32:55.104Z,11.4
2022-08-09T04:33:56.862Z,11.4
2022-08-09T04:34:57.440Z,11.4
2022-08-09T04:35:55.063Z,11.4
2022-08-09T04:36:55.093Z,11.4
2022-08-09T04:37:55.061Z,11.4
2022-08-09T04:38:55.084Z,11.4
2022-08-09T04:39:55.062Z,11.4
2022-08-09T04:40:56.517Z,11.4
2022-08-09T04:41:55.111Z,11.4
2022-08-09T04:42:55.083Z,11.4
2022-08-09T04:44:05.541Z,11.5
2022-08-09T04:44:55.051Z,11.5
2022-08-09T04:45:55.065Z,11.5
2022-08-09T04:46:57.920Z,11.5
2022-08-09T04:47:59.593Z,11.5
2022-08-09T04:48:57.565Z,11.5
2022-08-09T04:49:55.746Z,11.5
2022-08-09T04:50:55.065Z,11.5
2022-08-09T04:51:55.088Z,11.5
2022-08-09T04:52:55.053Z,11.6
2022-08-09T04:53:58.391Z,11.6
2022-08-09T04:54:55.059Z,11.7
2022-08-09T04:55:58.534Z,11.7
2022-08-09T04:56:55.111Z,11.8
2022-08-09T04:57:59.126Z,11.9
2022-08-09T04:58:55.278Z,12
2022-08-09T04:59:55.080Z,12.2
2022-08-09T05:00:55.060Z,12.2
2022-08-09T05:01:55.098Z,12.3
2022-08-09T05:02:55.072Z,12.4
2022-08-09T05:03:56.748Z,12.5
2022-08-09T05:04:55.753Z,12.5
2022-08-09T05:06:04.653Z,12.6
2022-08-09T05:06:55.925Z,12.7
2022-08-09T05:07:55.604Z,12.7
2022-08-09T05:09:00.148Z,12.8
2022-08-09T05:09:55.390Z,12.8
2022-08-09T05:10:55.395Z,12.9
2022-08-09T05:11:55.438Z,12.9
2022-08-09T05:12:55.409Z,12.9
2022-08-09T05:13:55.407Z,13
2022-08-09T05:14:55.401Z,13
2022-08-09T05:15:56.398Z,13
2022-08-09T05:16:58.701Z,13
2022-08-09T05:18:37.021Z,13
2022-08-09T05:18:58.925Z,13
2022-08-09T05:19:56.551Z,13
2022-08-09T05:20:55.765Z,13
2022-08-09T05:21:56.382Z,13
2022-08-09T05:23:53.607Z,13.1
2022-08-09T05:23:59.969Z,13.1
2022-08-09T05:24:57.195Z,13.1
2022-08-09T05:25:56.777Z,13.1
2022-08-09T05:26:55.550Z,13.1
2022-08-09T05:27:55.575Z,13.1
2022-08-09T05:28:55.542Z,13.1
2022-08-09T05:29:55.565Z,13.1
2022-08-09T05:30:55.768Z,13.1
2022-08-09T05:31:56.591Z,13.1
2022-08-09T05:32:55.634Z,13.1
2022-08-09T05:33:55.602Z,13.1
2022-08-09T05:34:55.579Z,13.2
2022-08-09T05:35:57.114Z,13.2
2022-08-09T05:36:55.575Z,13.2
2022-08-09T05:37:55.589Z,13.3
2022-08-09T05:38:55.568Z,13.3
2022-08-09T05:39:55.642Z,13.3
2022-08-09T05:40:55.108Z,13.3
2022-08-09T05:41:55.967Z,13.4
2022-08-09T05:42:55.119Z,13.4
2022-08-09T05:43:56.286Z,13.4
2022-08-09T05:44:56.421Z,13.5
2022-08-09T05:45:57.245Z,13.5
2022-08-09T05:46:55.061Z,13.6
2022-08-09T05:48:00.780Z,13.6
2022-08-09T05:48:58.750Z,13.6
2022-08-09T05:50:24.773Z,13.6
2022-08-09T05:51:11.925Z,13.7
2022-08-09T05:51:55.074Z,13.7
2022-08-09T05:52:55.136Z,13.7
2022-08-09T05:53:57.087Z,13.8
2022-08-09T05:54:55.208Z,13.8
2022-08-09T05:55:55.053Z,13.9
2022-08-09T05:56:56.656Z,13.9
2022-08-09T05:57:56.260Z,13.9
2022-08-09T05:58:58.022Z,14
2022-08-09T05:59:55.078Z,14
2022-08-09T06:00:55.066Z,14.1
2022-08-09T06:01:58.602Z,14.1
2022-08-09T06:02:56.839Z,14.2
2022-08-09T06:03:58.228Z,14.2
2022-08-09T06:04:55.689Z,14.3
2022-08-09T06:05:58.288Z,14.3
2022-08-09T06:06:55.064Z,14.4
2022-08-09T06:08:04.955Z,14.4
2022-08-09T06:08:55.066Z,14.5
2022-08-09T06:10:01.346Z,14.5
2022-08-09T06:10:55.101Z,14.6
2022-08-09T06:11:56.735Z,14.6
2022-08-09T06:13:03.198Z,14.6
2022-08-09T06:13:55.076Z,14.7
2022-08-09T06:14:55.075Z,14.7
2022-08-09T06:15:55.076Z,14.8
2022-08-09T06:16:55.058Z,14.8
2022-08-09T06:17:55.101Z,14.9
2022-08-09T06:18:55.101Z,14.9
2022-08-09T06:19:55.073Z,14.9
2022-08-09T06:20:56.919Z,15
2022-08-09T06:21:58.563Z,15
2022-08-09T06:22:55.069Z,15.1
2022-08-09T06:23:59.071Z,15.1
2022-08-09T06:24:55.076Z,15.2
2022-08-09T06:25:55.255Z,15.2
2022-08-09T06:26:55.087Z,15.2
2022-08-09T06:27:55.053Z,15.3
2022-08-09T06:28:59.792Z,15.3
2022-08-09T06:29:58.724Z,15.4
2022-08-09T06:30:55.066Z,15.4
2022-08-09T06:32:08.296Z,15.5
2022-08-09T06:33:01.099Z,15.5
2022-08-09T06:33:55.078Z,15.6
2022-08-09T06:34:55.075Z,15.6
2022-08-09T06:35:56.629Z,15.7
2022-08-09T06:36:56.467Z,15.7
2022-08-09T06:38:05.587Z,15.8
2022-08-09T06:38:57.002Z,15.8
2022-08-09T06:39:58.314Z,15.9
2022-08-09T06:40:55.262Z,15.9
2022-08-09T06:42:08.353Z,15.9
2022-08-09T06:42:55.071Z,16
2022-08-09T06:43:55.057Z,16.1
2022-08-09T06:44:55.060Z,16.1
2022-08-09T06:46:05.645Z,16.2
2022-08-09T06:46:55.683Z,16.2
2022-08-09T06:47:58.122Z,16.2
2022-08-09T06:48:58.494Z,16.3
2022-08-09T06:50:12.417Z,16.3
2022-08-09T06:50:55.080Z,16.4
2022-08-09T06:51:55.094Z,16.4
2022-08-09T06:52:55.080Z,16.5
2022-08-09T06:53:55.076Z,16.5
2022-08-09T06:54:55.075Z,16.5
2022-08-09T06:55:55.057Z,16.6
2022-08-09T06:56:55.072Z,16.6
2022-08-09T06:58:02.367Z,16.6
2022-08-09T07:00:47.810Z,16.7
2022-08-09T07:00:53.240Z,16.7
2022-08-09T07:00:58.364Z,16.7
2022-08-09T07:01:57.895Z,16.8
2022-08-09T07:02:55.099Z,16.8
2022-08-09T07:03:57.896Z,16.9
2022-08-09T07:04:55.066Z,16.9
2022-08-09T07:05:58.590Z,16.9
2022-08-09T07:06:59.818Z,16.9
2022-08-09T07:07:58.533Z,17
2022-08-09T07:08:55.058Z,17
2022-08-09T07:10:12.699Z,17.2
2022-08-09T07:10:55.178Z,17.2
2022-08-09T07:11:55.068Z,17.2
2022-08-09T07:12:57.346Z,17.3
2022-08-09T07:14:03.829Z,17.3
2022-08-09T07:14:55.066Z,17.3
2022-08-09T07:16:36.764Z,17.3
2022-08-09T07:16:57.834Z,17.3
2022-08-09T07:17:56.350Z,17.4
2022-08-09T07:18:55.034Z,17.4
2022-08-09T07:19:55.356Z,17.4
2022-08-09T07:20:55.069Z,17.5
2022-08-09T07:21:56.176Z,17.5
2022-08-09T07:22:55.197Z,17.5
2022-08-09T07:23:56.798Z,17.5
2022-08-09T07:24:55.624Z,17.6
2022-08-09T07:26:01.411Z,17.6
2022-08-09T07:26:55.488Z,17.6
2022-08-09T07:27:55.459Z,17.6
2022-08-09T07:29:01.519Z,17.7
2022-08-09T07:29:56.743Z,17.7
2022-08-09T07:30:55.079Z,17.7
2022-08-09T07:31:55.076Z,17.8
2022-08-09T07:32:55.201Z,17.8
2022-08-09T07:33:55.636Z,17.9
2022-08-09T07:34:55.062Z,17.9
2022-08-09T07:35:55.059Z,17.9
2022-08-09T07:36:55.061Z,18
2022-08-09T07:37:59.276Z,18
2022-08-09T07:38:58.332Z,18.1
2022-08-09T07:39:55.887Z,18.1
2022-08-09T07:41:10.928Z,18.2
2022-08-09T07:41:55.081Z,18.2
2022-08-09T07:42:55.650Z,18.2
2022-08-09T07:43:56.168Z,18.3
2022-08-09T07:44:57.354Z,18.3
2022-08-09T07:45:55.067Z,18.3
2022-08-09T07:46:55.058Z,18.3
2022-08-09T07:48:01.020Z,18.4
2022-08-09T07:48:58.782Z,18.4
2022-08-09T07:50:05.711Z,18.5
2022-08-09T07:51:03.462Z,18.5
2022-08-09T07:52:04.085Z,18.7
2022-08-09T07:52:57.527Z,18.7
2022-08-09T07:54:06.118Z,18.7
2022-08-09T07:54:55.096Z,18.8
2022-08-09T07:56:03.034Z,18.8
2022-08-09T07:56:55.083Z,18.8
2022-08-09T07:57:55.060Z,18.9
2022-08-09T07:58:55.069Z,18.9
2022-08-09T07:59:58.521Z,19
2022-08-09T08:00:55.838Z,19
2022-08-09T08:01:55.109Z,19.1
2022-08-09T08:02:55.087Z,19.1
2022-08-09T08:03:55.069Z,19.1
2022-08-09T08:04:55.084Z,19.2
2022-08-09T08:05:57.615Z,19.2
2022-08-09T08:06:55.687Z,19.3
2022-08-09T08:08:44.842Z,19.3
2022-08-09T08:09:00.487Z,19.4
2022-08-09T08:10:05.792Z,19.4
2022-08-09T08:11:03.532Z,19.4
2022-08-09T08:12:09.609Z,19.5
2022-08-09T08:12:56.542Z,19.5
2022-08-09T08:13:57.014Z,19.7
2022-08-09T08:14:55.098Z,19.7
2022-08-09T08:15:55.044Z,19.7
2022-08-09T08:17:01.177Z,19.7
2022-08-09T08:17:58.094Z,19.7
2022-08-09T08:18:55.081Z,19.8
2022-08-09T08:19:55.082Z,19.8
2022-08-09T08:20:55.053Z,19.8
2022-08-09T08:21:55.073Z,19.9
2022-08-09T08:22:55.710Z,19.9
2022-08-09T08:23:55.828Z,19.9
2022-08-09T08:24:55.104Z,20
2022-08-09T08:26:06.331Z,20
2022-08-09T08:26:56.593Z,20.1
2022-08-09T08:27:55.081Z,20.1
2022-08-09T08:28:55.093Z,20.1
2022-08-09T08:29:55.239Z,20.1
2022-08-09T08:30:55.325Z,20.2
2022-08-09T08:31:56.619Z,20.2
2022-08-09T08:32:55.036Z,20.3
2022-08-09T08:33:56.112Z,20.3
2022-08-09T08:34:55.243Z,20.5
2022-08-09T08:35:59.964Z,20.5
2022-08-09T08:36:55.119Z,20.6
2022-08-09T08:37:59.778Z,20.6
2022-08-09T08:38:56.226Z,20.6
2022-08-09T08:39:55.895Z,20.6
2022-08-09T08:40:55.606Z,20.7
2022-08-09T08:41:58.813Z,20.7
2022-08-09T08:42:55.279Z,20.8
2022-08-09T08:43:57.231Z,20.8
2022-08-09T08:44:55.059Z,20.9
2022-08-09T08:46:00.110Z,20.9
2022-08-09T08:47:00.206Z,20.9
2022-08-09T08:47:59.009Z,21
2022-08-09T08:48:55.038Z,21
2022-08-09T08:49:55.164Z,21.2
2022-08-09T08:50:55.207Z,21.2
2022-08-09T08:52:00.619Z,21.2
2022-08-09T08:52:59.823Z,21.3
2022-08-09T08:54:02.753Z,21.4
2022-08-09T08:54:55.114Z,21.4
2022-08-09T08:55:55.452Z,21.4
2022-08-09T08:56:55.179Z,21.4
2022-08-09T08:57:58.181Z,21.4
2022-08-09T08:58:55.172Z,21.5
2022-08-09T08:59:59.183Z,21.5
2022-08-09T09:00:57.281Z,21.5
2022-08-09T09:01:56.836Z,21.6
2022-08-09T09:02:56.059Z,21.6
2022-08-09T09:03:56.215Z,21.8
2022-08-09T09:04:55.082Z,21.9
2022-08-09T09:05:59.294Z,21.9
2022-08-09T09:06:55.064Z,21.9
2022-08-09T09:07:55.076Z,21.9
2022-08-09T09:08:59.505Z,22
2022-08-09T09:09:58.806Z,22
2022-08-09T09:10:55.098Z,22.1
2022-08-09T09:11:55.077Z,22.1
2022-08-09T09:12:55.570Z,22.1
2022-08-09T09:13:58.166Z,22.3
2022-08-09T09:14:55.130Z,22.3
2022-08-09T09:15:55.104Z,22.3
2022-08-09T09:16:55.066Z,22.4
2022-08-09T09:17:55.076Z,22.4
2022-08-09T09:19:06.631Z,22.5
2022-08-09T09:19:55.058Z,22.5
2022-08-09T09:20:55.074Z,22.5
2022-08-09T09:21:55.058Z,22.5
2022-08-09T09:22:55.492Z,22.6
2022-08-09T09:23:57.382Z,22.6
2022-08-09T09:24:59.280Z,22.6
2022-08-09T09:26:00.650Z,22.6
2022-08-09T09:26:55.062Z,22.6
2022-08-09T09:28:04.679Z,22.7
2022-08-09T09:29:02.731Z,22.7
2022-08-09T09:30:08.325Z,22.7
2022-08-09T09:30:55.056Z,22.7
2022-08-09T09:32:02.047Z,22.9
2022-08-09T09:32:55.062Z,22.9
2022-08-09T09:33:56.600Z,22.9
2022-08-09T09:34:55.083Z,23
2022-08-09T09:36:00.561Z,23
2022-08-09T09:36:55.066Z,23
2022-08-09T09:37:55.062Z,23
2022-08-09T09:38:55.168Z,23
2022-08-09T09:39:57.252Z,23.1
2022-08-09T09:40:55.058Z,23.1
2022-08-09T09:41:55.059Z,23.1
2022-08-09T09:42:55.059Z,23.1
2022-08-09T09:44:10.389Z,23.2
2022-08-09T09:44:55.104Z,23.2
2022-08-09T09:46:39.027Z,23.4
2022-08-09T09:46:55.062Z,23.5
2022-08-09T09:47:56.296Z,23.5
2022-08-09T09:48:55.056Z,23.5
2022-08-09T09:50:06.876Z,23.6
2022-08-09T09:50:55.165Z,23.6
2022-08-09T09:51:55.060Z,23.8
2022-08-09T09:52:55.951Z,23.8
2022-08-09T09:53:58.381Z,23.8
2022-08-09T09:54:55.815Z,23.8
2022-08-09T09:55:57.935Z,23.8
2022-08-09T09:58:01.852Z,23.8
2022-08-09T09:58:02.113Z,23.8
2022-08-09T09:58:55.073Z,23.8
2022-08-09T09:59:55.097Z,23.8
2022-08-09T10:00:59.525Z,23.8
2022-08-09T10:01:55.211Z,23.8
2022-08-09T10:02:55.219Z,23.8
2022-08-09T10:03:56.465Z,23.9
2022-08-09T10:04:55.091Z,23.9
2022-08-09T10:06:01.577Z,23.9
2022-08-09T10:06:55.093Z,23.9
2022-08-09T10:08:01.253Z,24
2022-08-09T10:08:57.442Z,24
2022-08-09T10:09:55.306Z,24
2022-08-09T10:10:55.074Z,24
2022-08-09T10:12:01.108Z,24.1
2022-08-09T10:12:55.334Z,24.1
2022-08-09T10:13:55.071Z,24.1
2022-08-09T10:14:55.112Z,24.1
2022-08-09T10:16:09.379Z,24.3
2022-08-09T10:16:58.400Z,24.3
2022-08-09T10:17:56.027Z,24.3
2022-08-09T10:18:55.075Z,24.3
2022-08-09T10:19:56.904Z,24.4
2022-08-09T10:20:55.073Z,24.4
2022-08-09T10:21:55.059Z,24.4
2022-08-09T10:23:00.006Z,24.5
2022-08-09T10:23:55.079Z,24.4
2022-08-09T10:24:55.081Z,24.4
2022-08-09T10:26:04.818Z,24.5
2022-08-09T10:26:55.056Z,24.5
2022-08-09T10:27:56.403Z,24.5
2022-08-09T10:29:20.949Z,24.7
2022-08-09T10:30:29.670Z,24.7
2022-08-09T10:32:55.506Z,24.7
2022-08-09T10:34:09.373Z,24.8
2022-08-09T10:34:55.169Z,24.8
2022-08-09T10:35:55.142Z,24.8
2022-08-09T10:36:55.396Z,24.8
2022-08-09T10:37:55.153Z,24.8
2022-08-09T10:38:57.400Z,24.8
2022-08-09T10:39:55.297Z,24.8
2022-08-09T10:40:56.387Z,24.8
2022-08-09T10:41:55.432Z,24.9
2022-08-09T10:42:55.066Z,24.9
2022-08-09T10:43:58.955Z,24.9
2022-08-09T10:44:55.066Z,24.9
2022-08-09T10:45:58.791Z,25.1
2022-08-09T10:46:57.404Z,25.1
2022-08-09T10:48:12.032Z,25.1
2022-08-09T10:48:55.068Z,25.2
2022-08-09T10:49:55.064Z,25.2
2022-08-09T10:50:55.066Z,25.2
2022-08-09T10:51:55.057Z,25.2
2022-08-09T10:52:55.063Z,25.2
2022-08-09T10:53:55.140Z,25.3
2022-08-09T10:54:55.078Z,25.3
2022-08-09T10:55:58.843Z,25.3
2022-08-09T10:56:55.080Z,25.3
2022-08-09T10:57:55.561Z,25.3
2022-08-09T10:58:55.062Z,25.3
2022-08-09T10:59:55.873Z,25.3
2022-08-09T11:01:11.188Z,25.3
2022-08-09T11:03:05.716Z,25.3
2022-08-09T11:03:05.733Z,25.3
2022-08-09T11:03:58.560Z,25.3
2022-08-09T11:04:55.774Z,25.3
2022-08-09T11:06:00.175Z,25.5
2022-08-09T11:06:55.086Z,25.3
2022-08-09T11:07:56.733Z,25.5
2022-08-09T11:08:59.691Z,25.5
2022-08-09T11:09:56.197Z,25.5
2022-08-09T11:10:56.534Z,25.5
2022-08-09T11:11:55.072Z,25.6
2022-08-09T11:12:55.073Z,25.6
2022-08-09T11:13:55.119Z,25.6
2022-08-09T11:14:55.771Z,25.6
2022-08-09T11:16:05.060Z,25.6
2022-08-09T11:16:55.080Z,25.6
2022-08-09T11:17:57.000Z,25.6
2022-08-09T11:18:55.060Z,25.6
2022-08-09T11:20:08.311Z,25.7
2022-08-09T11:20:55.065Z,25.7
2022-08-09T11:21:57.648Z,25.7
2022-08-09T11:22:55.731Z,25.9
2022-08-09T11:23:55.059Z,25.9
2022-08-09T11:24:55.077Z,25.9
2022-08-09T11:25:55.074Z,25.7
2022-08-09T11:26:55.135Z,25.7
2022-08-09T11:28:05.787Z,25.7
2022-08-09T11:28:56.760Z,25.9
2022-08-09T11:30:05.328Z,25.9
2022-08-09T11:30:55.175Z,25.9
2022-08-09T11:31:55.097Z,25.9
2022-08-09T11:32:55.065Z,25.9
2022-08-09T11:33:55.064Z,25.9
2022-08-09T11:34:55.063Z,25.9
2022-08-09T11:35:55.071Z,25.9
2022-08-09T11:36:55.068Z,25.9
2022-08-09T11:37:55.059Z,25.9
2022-08-09T11:38:55.062Z,25.9
2022-08-09T11:39:55.150Z,26
2022-08-09T11:40:55.116Z,26
2022-08-09T11:41:58.641Z,26
2022-08-09T11:42:55.130Z,26
2022-08-09T11:43:55.062Z,26
2022-08-09T11:44:55.231Z,26
2022-08-09T11:45:55.192Z,26
2022-08-09T11:46:55.397Z,26
2022-08-09T11:47:57.934Z,26.1
2022-08-09T11:48:55.290Z,26.1
2022-08-09T11:50:54.625Z,26.1
2022-08-09T11:52:49.793Z,26.1
2022-08-09T11:52:49.904Z,26.1
2022-08-09T11:53:03.877Z,26.1
2022-08-09T11:54:00.229Z,26.1
2022-08-09T11:54:55.066Z,26.1
2022-08-09T11:56:02.051Z,26.1
2022-08-09T11:56:55.068Z,26.1
2022-08-09T11:58:01.095Z,26.1
2022-08-09T11:58:55.040Z,26.1
2022-08-09T11:59:55.032Z,26.1
2022-08-09T12:00:55.100Z,26.1
2022-08-09T12:02:01.219Z,26.1
2022-08-09T12:02:55.271Z,26.1
2022-08-09T12:03:57.923Z,26.1
2022-08-09T12:04:58.727Z,26.1
2022-08-09T12:05:55.040Z,26.1
2022-08-09T12:06:55.597Z,26.1
2022-08-09T12:07:55.244Z,26.1
2022-08-09T12:08:55.063Z,26.3
2022-08-09T12:09:55.354Z,26.3
2022-08-09T12:10:55.084Z,26.3
2022-08-09T12:12:02.791Z,26.3
2022-08-09T12:12:55.050Z,26.4
2022-08-09T12:14:06.700Z,26.4
2022-08-09T12:15:04.460Z,26.4
2022-08-09T12:15:55.762Z,26.4
2022-08-09T12:16:56.342Z,26.4
2022-08-09T12:17:55.125Z,26.4
2022-08-09T12:18:55.374Z,26.4
2022-08-09T12:19:57.338Z,26.6
2022-08-09T12:20:55.062Z,26.6
2022-08-09T12:21:55.127Z,26.6
2022-08-09T12:22:55.679Z,26.6
2022-08-09T12:24:02.505Z,26.6
2022-08-09T12:24:55.065Z,26.7
2022-08-09T12:25:55.226Z,26.6
2022-08-09T12:28:58.067Z,26.6
2022-08-09T12:29:00.608Z,26.6
2022-08-09T12:29:01.199Z,26.7
2022-08-09T12:29:59.931Z,26.7
2022-08-09T12:30:55.059Z,26.7
2022-08-09T12:31:59.479Z,26.7
2022-08-09T12:32:55.140Z,26.7
2022-08-09T12:33:58.720Z,26.7
2022-08-09T12:34:55.066Z,26.7
2022-08-09T12:35:55.214Z,26.7
2022-08-09T12:36:58.760Z,26.7
2022-08-09T12:37:55.267Z,26.7
2022-08-09T12:38:55.226Z,26.7
2022-08-09T12:39:55.177Z,26.7
2022-08-09T12:40:55.047Z,26.7
2022-08-09T12:41:55.093Z,26.7
2022-08-09T12:42:55.074Z,26.7
2022-08-09T12:44:04.678Z,26.9
2022-08-09T12:44:55.062Z,26.7
2022-08-09T12:45:59.332Z,26.9
2022-08-09T12:46:55.083Z,26.9
2022-08-09T12:47:55.092Z,26.9
2022-08-09T12:48:55.105Z,26.9
2022-08-09T12:49:55.068Z,26.9
2022-08-09T12:50:55.086Z,26.9
2022-08-09T12:52:01.865Z,26.9
2022-08-09T12:53:02.680Z,26.9
2022-08-09T12:53:55.239Z,26.9
2022-08-09T12:55:03.381Z,26.9
2022-08-09T12:56:11.245Z,26.9
2022-08-09T12:56:55.060Z,26.9
2022-08-09T12:57:55.103Z,26.9
2022-08-09T12:58:57.680Z,26.9
2022-08-09T12:59:57.550Z,26.9
2022-08-09T13:00:55.201Z,26.9
2022-08-09T13:01:55.133Z,27
2022-08-09T13:02:55.099Z,27
2022-08-09T13:03:58.727Z,27
2022-08-09T13:04:55.060Z,27
2022-08-09T13:06:11.386Z,27
2022-08-09T13:06:55.073Z,27
2022-08-09T13:07:55.094Z,27
2022-08-09T13:08:56.312Z,27
2022-08-09T13:10:01.098Z,27
2022-08-09T13:10:55.071Z,27
2022-08-09T13:12:01.799Z,27
2022-08-09T13:13:09.268Z,26.9
2022-08-09T13:14:12.014Z,26.9
2022-08-09T13:14:55.334Z,26.9
2022-08-09T13:15:55.067Z,26.9
2022-08-09T13:16:56.503Z,26.9
2022-08-09T13:18:03.932Z,26.9
2022-08-09T13:18:55.065Z,26.9
2022-08-09T13:20:08.254Z,26.9
2022-08-09T13:21:04.635Z,27
2022-08-09T13:22:34.542Z,26.9
2022-08-09T13:23:00.869Z,26.9
2022-08-09T13:24:07.517Z,27
2022-08-09T13:24:55.363Z,27
2022-08-09T13:25:56.113Z,27
2022-08-09T13:26:55.069Z,27